KZ-0065 weather

CLOSED Aksuyek Airport
Aksuyek, Almaty Region, Kazakhstan

Public forecast

Using degrees Celsius for public forecast. Weather courtesy of forecast.io.

Closest aviation weather report (METAR) to Aksuyek Airport

Closest report is Manas International Airport, 93.2 nm (172.6 km) S. Retrieved 2020/02/25 21:00 UTC (20 minutes ago):

UCFM 252100Z 11002MPS 100V160 5000 BR FU NSC 02/M00 Q1017 R08/0///95 NOSIG

Closest aviation forecast (TAF) to Aksuyek Airport

Closest forecast is Manas International Airport, 93.2 nm (172.6 km) S. Retrieved 2020/02/25 18:00 UTC (3 hours ago):

TAF UCFM 251645Z 2518/2618 14003G08MPS 3000 BR SCT050 TEMPO 2518/2524 09007G12MPS 1500 BR FU SCT007 TEMPO 2600/2605 08007G12MPS 1500 BR FU SCT005 FM260500 30003G08MPS 9999 SCT050CB